Time;durP1;ratioP1;P1;durP2;ratioP2;P2;SDS_P1;SDS_P2;PMS_P1;PMS_P2;Temp;Humidity;BMP_temperature;BMP_pressure;BME280_temperature;BME280_humidity;BME280_pressure;Samples;Min_cycle;Max_cycle;Signal;HPM_P1;HPM_P2
2023/07/01 00:01:31;;;;;;;2.70;2.50;;;15.70;99.90;;;;;;5079046;28;20028;-70
2023/07/01 00:03:57;;;;;;;7.47;3.10;;;15.80;99.90;;;;;;5079276;28;20021;-70
2023/07/01 00:06:22;;;;;;;5.32;3.10;;;15.80;99.90;;;;;;5078771;28;20024;-70
2023/07/01 00:08:48;;;;;;;5.80;2.72;;;15.80;99.90;;;;;;5078861;28;20020;-70
2023/07/01 00:11:14;;;;;;;6.35;2.72;;;15.70;99.90;;;;;;5078941;28;20016;-70
2023/07/01 00:13:39;;;;;;;4.65;3.00;;;15.60;99.90;;;;;;5078468;28;20032;-70
2023/07/01 00:16:05;;;;;;;4.38;3.10;;;15.60;99.90;;;;;;5078592;28;20035;-70
2023/07/01 00:18:31;;;;;;;4.35;3.08;;;15.50;99.90;;;;;;5078338;28;20075;-70
2023/07/01 00:20:56;;;;;;;5.90;2.90;;;15.60;99.90;;;;;;5079110;28;20070;-70
2023/07/01 00:23:22;;;;;;;3.88;2.45;;;15.50;99.90;;;;;;5078718;28;20040;-70
2023/07/01 00:25:48;;;;;;;4.57;2.63;;;15.40;99.90;;;;;;5079133;28;20074;-70
2023/07/01 00:28:14;;;;;;;4.93;2.75;;;15.40;99.90;;;;;;5078646;28;20020;-70
2023/07/01 00:30:39;;;;;;;4.75;3.15;;;15.40;99.90;;;;;;5078250;28;20078;-70
2023/07/01 00:33:05;;;;;;;4.95;2.92;;;15.40;99.90;;;;;;5078366;28;20031;-70
2023/07/01 00:35:31;;;;;;;4.30;2.80;;;15.50;99.90;;;;;;5078363;28;20033;-70
2023/07/01 00:37:57;;;;;;;4.10;2.80;;;15.50;99.90;;;;;;5079015;28;20064;-70
2023/07/01 00:40:23;;;;;;;4.95;3.00;;;15.40;99.90;;;;;;5079047;28;20058;-70
2023/07/01 00:42:48;;;;;;;3.35;2.70;;;15.20;99.90;;;;;;5079037;28;20051;-70
2023/07/01 00:45:14;;;;;;;8.52;3.08;;;15.10;99.90;;;;;;5077876;28;20070;-70
2023/07/01 00:47:40;;;;;;;4.00;2.60;;;14.80;99.90;;;;;;5078960;28;20107;-70
2023/07/01 00:50:10;;;;;;;4.55;2.88;;;14.80;99.90;;;;;;5078889;28;20027;-70
2023/07/01 00:52:40;;;;;;;6.75;3.28;;;15.10;99.90;;;;;;5077174;28;20088;-70
2023/07/01 00:55:10;;;;;;;5.13;2.70;;;15.20;99.90;;;;;;5077949;28;20029;-70
2023/07/01 00:57:36;;;;;;;4.55;2.70;;;15.20;99.90;;;;;;5078048;28;20056;-70
2023/07/01 01:00:10;;;;;;;4.32;2.60;;;15.40;99.90;;;;;;5078606;28;20047;-70
2023/07/01 01:02:41;;;;;;;5.70;3.40;;;15.30;99.90;;;;;;5077803;28;20086;-70
2023/07/01 01:05:17;;;;;;;4.23;2.80;;;15.30;99.90;;;;;;5078719;28;20079;-70
2023/07/01 01:08:05;;;;;;;3.05;2.42;;;15.20;99.90;;;;;;5078801;28;20025;-69
2023/07/01 01:10:35;;;;;;;4.03;2.88;;;15.10;99.90;;;;;;5077657;28;20025;-70
2023/07/01 01:13:03;;;;;;;7.78;2.83;;;15.10;99.90;;;;;;5078186;28;20025;-70
2023/07/01 01:15:30;;;;;;;3.85;2.75;;;15.00;99.90;;;;;;5077359;28;20036;-70
2023/07/01 01:17:59;;;;;;;3.60;2.60;;;15.00;99.90;;;;;;5077557;28;20021;-70
2023/07/01 01:20:30;;;;;;;5.25;2.90;;;15.10;99.90;;;;;;5077664;28;20104;-70
2023/07/01 01:23:00;;;;;;;3.07;2.67;;;15.30;99.90;;;;;;5077478;28;20047;-70
2023/07/01 01:25:45;;;;;;;4.45;2.83;;;15.30;99.90;;;;;;5077974;28;20266;-70
2023/07/01 01:28:12;;;;;;;5.30;3.00;;;15.40;99.90;;;;;;5077933;28;20028;-70
2023/07/01 01:30:38;;;;;;;8.80;2.80;;;15.40;99.90;;;;;;5077238;28;20024;-70
2023/07/01 01:33:04;;;;;;;4.00;2.47;;;15.20;99.90;;;;;;5078143;28;20026;-70
2023/07/01 01:35:32;;;;;;;4.15;2.97;;;15.00;99.90;;;;;;5077440;28;20024;-70
2023/07/01 01:38:04;;;;;;;5.28;3.15;;;15.00;99.90;;;;;;5077098;28;20115;-69
2023/07/01 01:41:00;;;;;;;2.97;2.67;;;14.90;99.90;;;;;;5077427;28;20032;-70
2023/07/01 01:43:50;;;;;;;4.75;2.85;;;14.90;99.90;;;;;;5076959;28;20029;-70
2023/07/01 01:46:16;;;;;;;5.07;2.70;;;14.90;99.90;;;;;;5076706;28;20029;-70
2023/07/01 01:48:42;;;;;;;4.07;2.83;;;14.90;99.90;;;;;;5077605;28;20052;-70
2023/07/01 01:51:08;;;;;;;5.28;3.05;;;15.00;99.90;;;;;;5077439;28;20075;-70
2023/07/01 01:53:36;;;;;;;4.50;2.92;;;14.90;99.90;;;;;;5077609;28;20055;-70
2023/07/01 01:56:03;;;;;;;10.25;2.75;;;14.90;99.90;;;;;;5076729;28;20058;-70
2023/07/01 01:58:29;;;;;;;4.28;3.10;;;15.00;99.90;;;;;;5076865;28;20031;-70
2023/07/01 02:00:55;;;;;;;4.18;2.72;;;15.20;99.90;;;;;;5076983;28;20028;-70
2023/07/01 02:03:20;;;;;;;4.80;2.90;;;15.10;99.90;;;;;;5076708;28;20021;-70
2023/07/01 02:05:46;;;;;;;3.30;2.42;;;15.10;99.90;;;;;;5076258;28;20024;-70
2023/07/01 02:08:12;;;;;;;6.63;3.05;;;15.10;99.90;;;;;;5077304;28;20028;-70
2023/07/01 02:10:37;;;;;;;4.53;2.92;;;14.90;99.90;;;;;;5076849;28;20048;-70
2023/07/01 02:13:03;;;;;;;6.85;3.15;;;14.90;99.90;;;;;;5076635;28;20017;-70
2023/07/01 02:15:28;;;;;;;4.53;2.67;;;14.90;99.90;;;;;;5076597;28;20094;-70
2023/07/01 02:17:54;;;;;;;3.33;3.00;;;14.90;99.90;;;;;;5076582;28;20052;-70
2023/07/01 02:20:20;;;;;;;8.60;3.13;;;14.90;99.90;;;;;;5076274;28;20024;-70
2023/07/01 02:22:45;;;;;;;3.65;2.88;;;14.90;99.90;;;;;;5076948;28;20063;-70
2023/07/01 02:25:11;;;;;;;3.38;2.72;;;14.90;99.90;;;;;;5077293;28;20021;-70
2023/07/01 02:27:36;;;;;;;12.63;4.28;;;14.90;99.90;;;;;;5076347;28;20080;-70
2023/07/01 02:30:03;;;;;;;2.88;2.58;;;14.90;99.90;;;;;;5076469;28;20021;-70
2023/07/01 02:32:29;;;;;;;5.70;3.20;;;15.00;99.90;;;;;;5077128;28;20082;-70
2023/07/01 02:34:54;;;;;;;7.40;2.88;;;14.90;99.90;;;;;;5076948;28;20044;-70
2023/07/01 02:37:20;;;;;;;4.15;3.13;;;14.90;99.90;;;;;;5076873;28;20025;-70
2023/07/01 02:39:46;;;;;;;5.40;2.90;;;14.90;99.90;;;;;;5075822;28;20041;-70
2023/07/01 02:42:15;;;;;;;6.47;3.00;;;14.90;99.90;;;;;;5076842;28;20083;-70
2023/07/01 02:44:41;;;;;;;6.22;2.80;;;14.90;99.90;;;;;;5077012;28;20027;-70
2023/07/01 02:47:07;;;;;;;3.83;2.90;;;14.90;99.90;;;;;;5076173;28;20032;-69
2023/07/01 02:49:33;;;;;;;7.82;2.75;;;14.80;99.90;;;;;;5076487;28;20038;-70
2023/07/01 02:51:58;;;;;;;3.20;2.45;;;14.70;99.90;;;;;;5076226;28;20029;-70
2023/07/01 02:54:24;;;;;;;3.95;2.60;;;14.80;99.90;;;;;;5076392;28;20024;-70
2023/07/01 02:56:49;;;;;;;4.03;3.00;;;14.80;99.90;;;;;;5076187;28;20111;-70
2023/07/01 02:59:15;;;;;;;5.25;3.25;;;14.90;99.90;;;;;;5075819;28;20055;-70
2023/07/01 03:01:44;;;;;;;3.90;2.50;;;15.00;99.90;;;;;;5076892;28;20020;-70
2023/07/01 03:04:10;;;;;;;9.55;3.13;;;15.00;99.90;;;;;;5075812;28;20031;-70
2023/07/01 03:06:35;;;;;;;5.40;2.90;;;15.00;99.90;;;;;;5075655;28;20111;-70
2023/07/01 03:09:07;;;;;;;7.03;3.13;;;15.00;99.90;;;;;;5076550;28;20020;-70
2023/07/01 03:11:34;;;;;;;4.15;2.78;;;15.00;99.90;;;;;;5076258;28;20055;-70
2023/07/01 03:13:59;;;;;;;3.58;2.88;;;15.00;99.90;;;;;;5075712;28;20109;-70
2023/07/01 03:16:25;;;;;;;4.82;3.10;;;15.00;99.90;;;;;;5077171;28;20063;-70
2023/07/01 03:18:51;;;;;;;5.88;2.67;;;14.90;99.90;;;;;;5080688;28;20044;-70
2023/07/01 03:21:16;;;;;;;4.43;2.92;;;14.90;99.90;;;;;;5080670;28;20044;-70
2023/07/01 03:23:42;;;;;;;4.20;2.88;;;15.00;99.90;;;;;;5079526;28;20052;-69
2023/07/01 03:26:07;;;;;;;6.63;3.10;;;15.00;99.90;;;;;;5080098;28;20024;-69
2023/07/01 03:28:33;;;;;;;8.88;2.90;;;15.10;99.90;;;;;;5079541;28;20079;-70
2023/07/01 03:30:58;;;;;;;4.53;2.85;;;15.20;99.90;;;;;;5080139;28;20024;-70
2023/07/01 03:33:25;;;;;;;6.57;3.05;;;15.20;99.90;;;;;;5079601;28;20024;-70
2023/07/01 03:35:50;;;;;;;6.55;3.00;;;15.20;99.90;;;;;;5080362;28;20024;-70
2023/07/01 03:38:16;;;;;;;8.50;2.80;;;15.20;99.90;;;;;;5080076;28;20027;-70
2023/07/01 03:40:41;;;;;;;4.00;2.63;;;15.20;99.90;;;;;;5079058;28;20060;-70
2023/07/01 03:43:07;;;;;;;4.53;3.28;;;15.20;99.90;;;;;;5079507;28;20067;-70
2023/07/01 03:45:32;;;;;;;5.35;3.13;;;15.20;99.90;;;;;;5079421;28;20036;-70
2023/07/01 03:47:58;;;;;;;4.72;3.10;;;15.10;99.90;;;;;;5079113;28;20028;-70
2023/07/01 03:50:23;;;;;;;4.25;3.05;;;15.20;99.90;;;;;;5078961;28;20035;-70
2023/07/01 03:52:49;;;;;;;9.30;3.40;;;15.20;99.90;;;;;;5079352;28;20027;-70
2023/07/01 03:55:15;;;;;;;5.30;3.50;;;15.30;99.90;;;;;;5079396;28;20024;-70
2023/07/01 03:57:41;;;;;;;5.47;3.78;;;15.30;99.90;;;;;;5078839;28;20111;-70
2023/07/01 04:00:17;;;;;;;8.75;3.20;;;15.30;99.90;;;;;;5079344;28;20032;-70
2023/07/01 04:02:51;;;;;;;4.70;3.53;;;15.30;99.90;;;;;;5079620;28;20123;-70
2023/07/01 04:05:18;;;;;;;5.78;3.97;;;15.40;99.90;;;;;;5079920;28;20213;-70
2023/07/01 04:07:46;;;;;;;4.13;3.08;;;15.50;99.90;;;;;;5079708;28;20029;-70
2023/07/01 04:10:13;;;;;;;4.45;3.10;;;15.60;99.90;;;;;;5078470;28;20111;-70
2023/07/01 04:12:39;;;;;;;7.75;2.85;;;15.60;99.90;;;;;;5079005;28;20021;-70
2023/07/01 04:15:09;;;;;;;7.72;3.65;;;15.60;99.90;;;;;;5078843;28;20024;-70
2023/07/01 04:17:36;;;;;;;4.88;3.05;;;15.50;99.90;;;;;;5078593;28;20016;-70
2023/07/01 04:20:03;;;;;;;5.65;2.97;;;15.50;99.90;;;;;;5078750;28;20024;-70
2023/07/01 04:22:28;;;;;;;6.97;3.42;;;15.50;99.90;;;;;;5078693;28;20025;-70
2023/07/01 04:24:54;;;;;;;7.68;3.20;;;15.60;99.90;;;;;;5079177;28;20078;-70
2023/07/01 04:27:19;;;;;;;9.48;3.45;;;15.70;99.90;;;;;;5078538;28;20025;-69
2023/07/01 04:29:45;;;;;;;6.30;3.15;;;15.60;99.90;;;;;;5078141;28;20076;-70
2023/07/01 04:32:10;;;;;;;8.60;3.63;;;15.70;99.90;;;;;;5078350;28;20021;-70
2023/07/01 04:34:36;;;;;;;6.93;3.05;;;15.70;99.90;;;;;;5078508;28;20071;-70
2023/07/01 04:37:02;;;;;;;10.80;4.00;;;15.70;99.90;;;;;;5079072;28;20040;-70
2023/07/01 04:39:27;;;;;;;7.55;3.70;;;15.60;99.90;;;;;;5100211;22;20090;-69
2023/07/01 04:41:53;;;;;;;8.77;4.18;;;15.50;99.90;;;;;;5078223;28;20099;-67
2023/07/01 04:44:18;;;;;;;6.20;3.10;;;15.50;99.90;;;;;;5079012;28;20071;-67
2023/07/01 04:46:44;;;;;;;3.80;3.35;;;15.50;99.90;;;;;;5078055;28;20025;-67
2023/07/01 04:49:10;;;;;;;8.50;3.50;;;15.60;99.90;;;;;;5078035;28;20017;-71
2023/07/01 04:51:36;;;;;;;5.97;3.42;;;15.70;99.90;;;;;;5078345;28;20021;-71
2023/07/01 04:54:02;;;;;;;7.20;3.17;;;15.80;99.90;;;;;;5078739;28;20031;-66
2023/07/01 04:56:28;;;;;;;7.70;3.00;;;15.80;99.90;;;;;;5078433;28;20111;-71
2023/07/01 04:58:53;;;;;;;3.92;3.13;;;15.70;99.90;;;;;;5077803;28;20044;-67
2023/07/01 05:01:19;;;;;;;9.68;2.97;;;15.70;99.90;;;;;;5078218;28;20024;-67
2023/07/01 05:03:45;;;;;;;8.32;4.10;;;15.90;99.90;;;;;;5079220;28;20023;-66
2023/07/01 05:06:11;;;;;;;4.55;3.03;;;15.80;99.90;;;;;;5077930;28;20024;-67
2023/07/01 05:08:36;;;;;;;4.22;2.95;;;15.90;99.90;;;;;;5077639;28;20078;-68
2023/07/01 05:11:03;;;;;;;4.10;3.20;;;16.00;99.90;;;;;;5077930;28;20020;-73
2023/07/01 05:13:29;;;;;;;5.72;3.42;;;16.10;99.90;;;;;;5078519;28;20030;-71
2023/07/01 05:15:54;;;;;;;6.47;3.28;;;16.20;99.90;;;;;;5077870;28;20024;-70
2023/07/01 05:18:20;;;;;;;7.38;3.03;;;16.10;99.90;;;;;;5077492;28;20029;-68
2023/07/01 05:20:46;;;;;;;4.65;3.28;;;16.00;99.90;;;;;;5077665;28;20025;-68
2023/07/01 05:23:12;;;;;;;5.90;3.70;;;15.90;99.90;;;;;;5078374;28;20101;-72
2023/07/01 05:25:38;;;;;;;6.38;3.28;;;16.00;99.90;;;;;;5077649;28;20025;-73
2023/07/01 05:28:03;;;;;;;5.78;3.22;;;16.10;99.90;;;;;;5077348;28;20047;-70
2023/07/01 05:30:29;;;;;;;4.28;3.42;;;16.20;99.90;;;;;;5077190;28;20024;-70
2023/07/01 05:32:54;;;;;;;5.22;2.95;;;16.30;99.90;;;;;;5077344;28;20024;-70
2023/07/01 05:35:20;;;;;;;4.07;2.80;;;16.50;99.90;;;;;;5078056;28;20024;-73
2023/07/01 05:37:45;;;;;;;7.75;3.22;;;16.80;99.90;;;;;;5077092;28;20032;-69
2023/07/01 05:40:12;;;;;;;6.15;2.90;;;16.90;99.90;;;;;;5077021;28;20029;-71
2023/07/01 05:42:38;;;;;;;4.72;3.08;;;16.90;99.90;;;;;;5077011;28;20027;-71
2023/07/01 05:45:04;;;;;;;6.13;2.80;;;17.10;99.90;;;;;;5077025;28;20032;-72
2023/07/01 05:47:30;;;;;;;6.03;2.85;;;17.00;99.90;;;;;;5076752;28;20029;-73
2023/07/01 05:49:55;;;;;;;6.82;3.20;;;16.80;99.90;;;;;;5077233;28;20020;-70
2023/07/01 05:52:21;;;;;;;5.00;2.95;;;16.70;99.90;;;;;;5076843;28;20107;-69
2023/07/01 05:54:46;;;;;;;6.45;2.90;;;16.80;99.90;;;;;;5076626;28;20020;-70
2023/07/01 05:57:12;;;;;;;5.43;2.75;;;16.70;99.90;;;;;;5076781;28;20025;-70
2023/07/01 05:59:37;;;;;;;7.45;3.10;;;16.90;99.90;;;;;;5076683;28;20073;-69
2023/07/01 06:02:03;;;;;;;5.50;2.95;;;17.00;99.90;;;;;;5077392;28;20031;-70
2023/07/01 06:04:29;;;;;;;7.78;3.53;;;16.90;99.90;;;;;;5076878;28;20028;-70
2023/07/01 06:06:54;;;;;;;5.53;2.80;;;16.80;99.90;;;;;;5077276;28;20024;-70
2023/07/01 06:09:20;;;;;;;5.97;2.85;;;17.00;99.90;;;;;;5077209;28;20017;-70
2023/07/01 06:11:45;;;;;;;4.45;2.50;;;17.30;99.90;;;;;;5076790;28;20016;-70
2023/07/01 06:14:11;;;;;;;4.85;2.50;;;17.40;99.90;;;;;;5076830;28;20020;-70
2023/07/01 06:16:37;;;;;;;6.97;2.60;;;17.40;99.90;;;;;;5076408;28;20021;-70
2023/07/01 06:19:04;;;;;;;4.72;2.63;;;17.60;99.90;;;;;;5077527;28;20048;-70
2023/07/01 06:21:29;;;;;;;6.88;2.58;;;17.80;99.90;;;;;;5076345;28;20119;-70
2023/07/01 06:23:55;;;;;;;3.78;2.45;;;18.00;99.90;;;;;;5076300;28;20024;-70
2023/07/01 06:26:21;;;;;;;3.22;2.35;;;18.00;99.90;;;;;;5076452;28;20028;-70
2023/07/01 06:28:47;;;;;;;4.18;2.38;;;18.10;99.90;;;;;;5076562;28;20032;-69
2023/07/01 06:31:12;;;;;;;8.00;2.70;;;18.20;99.90;;;;;;5077333;28;20020;-69
2023/07/01 06:33:38;;;;;;;5.55;2.45;;;18.30;99.90;;;;;;5076551;28;20028;-69
2023/07/01 06:36:04;;;;;;;5.72;2.28;;;18.30;99.90;;;;;;5076156;28;20020;-69
2023/07/01 06:38:30;;;;;;;7.03;2.30;;;18.40;99.90;;;;;;5076140;28;20025;-69
2023/07/01 06:40:55;;;;;;;5.03;2.60;;;18.40;99.90;;;;;;5076115;28;20032;-69
2023/07/01 06:43:21;;;;;;;2.90;2.20;;;18.60;99.90;;;;;;5076247;28;20029;-69
2023/07/01 06:45:46;;;;;;;3.67;1.98;;;18.80;99.90;;;;;;5076010;28;20035;-68
2023/07/01 06:48:12;;;;;;;5.88;1.90;;;18.90;99.90;;;;;;5076132;28;20017;-69
2023/07/01 06:50:38;;;;;;;4.28;2.60;;;18.90;99.90;;;;;;5076132;28;20031;-69
2023/07/01 06:53:03;;;;;;;5.18;2.13;;;19.00;99.90;;;;;;5076013;28;20128;-69
2023/07/01 06:55:30;;;;;;;7.00;2.20;;;19.10;99.90;;;;;;5076755;28;20084;-69
2023/07/01 06:57:55;;;;;;;4.65;1.83;;;19.10;99.90;;;;;;5076044;28;20052;-69
2023/07/01 07:00:21;;;;;;;3.70;1.90;;;19.20;99.90;;;;;;5076008;28;20020;-69
2023/07/01 07:02:47;;;;;;;4.35;1.75;;;19.40;99.90;;;;;;5077248;28;20029;-69
2023/07/01 07:05:12;;;;;;;1.85;1.65;;;19.50;99.90;;;;;;5076086;28;20023;-69
2023/07/01 07:07:38;;;;;;;3.78;1.95;;;19.40;99.90;;;;;;5076667;28;20070;-69
2023/07/01 07:10:04;;;;;;;4.63;1.98;;;19.30;99.90;;;;;;5076138;28;20115;-69
2023/07/01 07:12:30;;;;;;;2.53;1.60;;;19.30;99.90;;;;;;5076756;28;20021;-69
2023/07/01 07:14:55;;;;;;;4.20;1.85;;;19.60;99.90;;;;;;5076745;28;20027;-68
2023/07/01 07:17:21;;;;;;;3.58;1.85;;;20.00;99.90;;;;;;5076725;28;20032;-68
2023/07/01 07:19:47;;;;;;;4.15;1.80;;;20.10;99.90;;;;;;5075739;28;20029;-68
2023/07/01 07:22:12;;;;;;;4.75;1.90;;;20.30;99.90;;;;;;5075790;28;20021;-69
2023/07/01 07:24:41;;;;;;;5.35;1.60;;;20.40;99.90;;;;;;5075634;28;20119;-69
2023/07/01 07:27:07;;;;;;;5.95;2.10;;;20.50;99.90;;;;;;5076709;28;20047;-68
2023/07/01 07:29:33;;;;;;;3.28;1.83;;;20.60;99.90;;;;;;5076036;28;20020;-68
2023/07/01 07:32:00;;;;;;;4.63;2.80;;;20.60;99.90;;;;;;5075450;28;20028;-68
2023/07/01 07:34:25;;;;;;;8.50;3.50;;;20.70;99.90;;;;;;5075793;28;20028;-68
2023/07/01 07:36:52;;;;;;;5.82;2.58;;;20.70;99.90;;;;;;5075675;28;20116;-68
2023/07/01 07:39:17;;;;;;;2.95;1.63;;;20.70;99.90;;;;;;5075370;28;20025;-68
2023/07/01 07:41:45;;;;;;;4.03;1.70;;;20.80;99.90;;;;;;5076815;28;20035;-69
2023/07/01 07:44:11;;;;;;;3.85;1.70;;;20.80;99.90;;;;;;5075732;28;20062;-69
2023/07/01 07:46:39;;;;;;;5.88;1.77;;;21.00;99.90;;;;;;5075220;28;20028;-68
2023/07/01 07:49:05;;;;;;;6.40;1.45;;;21.10;99.90;;;;;;5076054;28;20025;-68
2023/07/01 07:51:31;;;;;;;3.15;1.88;;;21.20;99.90;;;;;;5075600;28;20023;-68
2023/07/01 07:53:57;;;;;;;3.70;1.33;;;21.30;99.90;;;;;;5075710;28;20150;-68
2023/07/01 07:56:23;;;;;;;4.22;1.70;;;21.40;99.90;;;;;;5075844;28;20028;-68
2023/07/01 07:58:48;;;;;;;5.25;1.63;;;21.40;99.90;;;;;;5075350;28;20115;-68
2023/07/01 08:01:14;;;;;;;2.35;1.27;;;21.30;99.90;;;;;;5075364;28;20020;-68
2023/07/01 08:03:40;;;;;;;1.55;1.42;;;21.30;99.90;;;;;;5078872;28;20052;-68
2023/07/01 08:06:06;;;;;;;4.45;1.50;;;21.20;99.90;;;;;;5078768;28;20035;-68
2023/07/01 08:08:32;;;;;;;4.85;1.60;;;21.20;99.90;;;;;;5079279;28;20021;-68
2023/07/01 08:10:59;;;;;;;8.30;2.47;;;21.30;99.90;;;;;;5079020;28;20031;-68
2023/07/01 08:13:25;;;;;;;6.25;2.10;;;21.20;99.90;;;;;;5078923;28;20031;-68
2023/07/01 08:15:50;;;;;;;3.97;1.90;;;21.10;99.90;;;;;;5079511;28;20021;-68
2023/07/01 08:18:16;;;;;;;5.60;1.98;;;21.00;99.90;;;;;;5078995;28;20021;-68
2023/07/01 08:20:44;;;;;;;6.35;2.22;;;20.90;99.90;;;;;;5078600;28;20025;-68
2023/07/01 08:23:10;;;;;;;4.95;2.63;;;21.00;99.90;;;;;;5078659;28;20086;-68
2023/07/01 08:25:36;;;;;;;9.10;3.10;;;20.90;99.90;;;;;;5079412;28;20024;-68
2023/07/01 08:28:01;;;;;;;6.43;4.07;;;21.00;99.90;;;;;;5078802;28;20016;-68
2023/07/01 08:30:27;;;;;;;4.18;1.58;;;20.90;99.90;;;;;;5078356;28;20025;-68
2023/07/01 08:32:52;;;;;;;4.85;1.80;;;20.90;99.90;;;;;;5078892;28;20016;-69
2023/07/01 08:35:18;;;;;;;2.67;1.90;;;20.90;99.90;;;;;;5078418;28;20021;-69
2023/07/01 08:37:44;;;;;;;6.65;2.33;;;20.80;99.90;;;;;;5079208;28;20055;-69
2023/07/01 08:40:10;;;;;;;4.00;2.17;;;20.70;99.90;;;;;;5079248;28;20047;-70
2023/07/01 08:42:48;;;;;;;2.65;1.63;;;20.80;99.90;;;;;;5078721;28;20024;-70
2023/07/01 08:45:14;;;;;;;5.10;2.00;;;20.80;99.90;;;;;;5078280;28;20035;-69
2023/07/01 08:47:40;;;;;;;5.63;1.58;;;20.90;99.90;;;;;;5078076;28;20036;-69
2023/07/01 08:50:07;;;;;;;4.53;2.28;;;20.90;99.90;;;;;;5079046;28;20023;-69
2023/07/01 08:52:41;;;;;;;3.58;1.90;;;20.90;99.90;;;;;;5077843;28;20028;-69
2023/07/01 08:55:09;;;;;;;6.35;2.08;;;20.90;99.90;;;;;;5078622;28;20067;-69
2023/07/01 08:57:37;;;;;;;6.47;1.90;;;20.80;99.90;;;;;;5078854;28;20017;-69
2023/07/01 09:00:04;;;;;;;5.32;2.03;;;20.80;99.90;;;;;;5077947;28;20028;-70
2023/07/01 09:02:30;;;;;;;6.70;1.90;;;20.90;99.90;;;;;;5078766;28;20024;-69
2023/07/01 09:04:57;;;;;;;4.00;1.60;;;21.00;99.90;;;;;;5078724;28;20021;-69
2023/07/01 09:07:23;;;;;;;10.23;1.95;;;21.10;99.90;;;;;;5077961;28;20035;-69
2023/07/01 09:09:48;;;;;;;5.22;1.88;;;21.10;99.90;;;;;;5077780;28;20108;-69
2023/07/01 09:12:14;;;;;;;6.50;2.10;;;21.10;99.90;;;;;;5077840;28;20017;-69
2023/07/01 09:14:58;;;;;;;5.70;2.03;;;21.10;99.90;;;;;;5076863;28;20123;-69
2023/07/01 09:17:35;;;;;;;7.60;1.77;;;21.10;99.90;;;;;;5077893;28;20028;-69
2023/07/01 09:20:06;;;;;;;4.70;1.98;;;21.00;99.90;;;;;;5077470;28;20029;-69
2023/07/01 09:22:34;;;;;;;3.47;2.30;;;21.00;99.90;;;;;;5078636;28;20103;-69
2023/07/01 09:25:00;;;;;;;4.40;2.47;;;21.10;99.90;;;;;;5077343;28;20036;-69
2023/07/01 09:27:40;;;;;;;3.78;1.52;;;21.30;99.90;;;;;;5078259;28;20055;-69
2023/07/01 09:30:25;;;;;;;5.60;2.00;;;21.30;99.90;;;;;;5078252;28;20044;-69
2023/07/01 09:32:51;;;;;;;3.28;1.77;;;21.20;99.90;;;;;;5077464;28;20020;-69
2023/07/01 09:35:17;;;;;;;4.13;1.70;;;21.20;99.90;;;;;;5078165;28;20095;-69
2023/07/01 09:37:42;;;;;;;5.10;1.92;;;21.00;99.90;;;;;;5077933;28;20025;-69
2023/07/01 09:40:20;;;;;;;4.30;1.63;;;20.90;99.90;;;;;;5077121;28;20036;-69
2023/07/01 09:42:53;;;;;;;5.88;2.15;;;20.90;99.90;;;;;;5077963;28;20028;-69
2023/07/01 09:45:19;;;;;;;2.28;1.65;;;20.80;99.90;;;;;;5077467;28;20047;-69
2023/07/01 09:47:51;;;;;;;5.50;1.83;;;20.60;99.90;;;;;;5077988;28;20029;-69
2023/07/01 09:50:26;;;;;;;7.90;4.05;;;20.60;99.90;;;;;;5077866;28;20021;-69
2023/07/01 09:52:53;;;;;;;6.35;2.40;;;20.50;99.90;;;;;;5076897;28;20031;-69
2023/07/01 09:55:19;;;;;;;2.83;1.65;;;20.30;99.90;;;;;;5077863;28;20027;-69
2023/07/01 09:57:45;;;;;;;4.72;1.50;;;20.20;99.90;;;;;;5077772;28;20103;-69
2023/07/01 10:00:15;;;;;;;5.93;2.00;;;20.10;99.90;;;;;;5077679;28;20039;-68
2023/07/01 10:02:45;;;;;;;1.73;1.40;;;20.10;99.90;;;;;;5077854;28;20043;-69
2023/07/01 10:05:14;;;;;;;3.60;1.83;;;20.10;99.90;;;;;;5076692;28;20087;-69
2023/07/01 10:07:41;;;;;;;2.25;1.75;;;20.00;99.90;;;;;;5077339;28;20058;-69
2023/07/01 10:10:17;;;;;;;9.65;2.35;;;20.00;99.90;;;;;;5076465;28;20035;-69
2023/07/01 10:12:45;;;;;;;5.28;1.75;;;20.00;99.90;;;;;;5076557;28;20055;-69
2023/07/01 10:15:13;;;;;;;4.38;1.92;;;20.10;99.90;;;;;;5076591;28;20020;-69
2023/07/01 10:17:46;;;;;;;3.55;1.77;;;20.00;99.90;;;;;;5077155;28;20024;-70
2023/07/01 10:20:28;;;;;;;4.70;1.95;;;20.10;99.90;;;;;;5076582;28;20070;-69
2023/07/01 10:22:58;;;;;;;4.28;1.40;;;20.20;99.90;;;;;;5076298;28;20139;-69
2023/07/01 10:25:38;;;;;;;5.32;1.52;;;20.20;99.90;;;;;;5076748;28;20025;-69
2023/07/01 10:28:10;;;;;;;4.60;2.20;;;20.20;99.90;;;;;;5077299;28;20085;-69
2023/07/01 10:30:42;;;;;;;3.35;1.48;;;20.30;99.90;;;;;;5076246;28;20048;-69
2023/07/01 10:33:27;;;;;;;7.22;2.30;;;20.30;99.90;;;;;;5077098;28;20017;-69
2023/07/01 10:36:06;;;;;;;2.42;1.77;;;20.30;99.90;;;;;;5076473;28;20030;-69
2023/07/01 10:38:34;;;;;;;3.47;1.92;;;20.40;99.90;;;;;;5076391;28;20023;-69
2023/07/01 10:40:59;;;;;;;3.42;1.63;;;20.30;99.90;;;;;;5099062;22;20075;-69
2023/07/01 10:43:30;;;;;;;3.38;1.60;;;20.30;99.90;;;;;;5076460;28;20025;-70
2023/07/01 10:46:24;;;;;;;4.78;2.20;;;20.30;99.90;;;;;;5076931;28;20035;-70
2023/07/01 10:49:02;;;;;;;6.03;1.63;;;20.20;99.90;;;;;;5077031;28;20100;-70
2023/07/01 10:51:28;;;;;;;4.82;2.63;;;20.10;99.90;;;;;;5075884;28;20030;-70
2023/07/01 10:54:05;;;;;;;6.65;3.35;;;20.10;99.90;;;;;;5076573;28;20024;-70
2023/07/01 10:56:38;;;;;;;5.07;2.45;;;20.00;99.90;;;;;;5075861;28;20074;-69
2023/07/01 10:59:21;;;;;;;7.38;2.97;;;20.00;99.90;;;;;;5076356;28;20035;-70
2023/07/01 11:01:51;;;;;;;5.80;2.28;;;20.00;99.90;;;;;;5076018;28;20035;-70
2023/07/01 11:04:19;;;;;;;4.30;2.20;;;20.10;99.90;;;;;;5076643;28;20028;-70
2023/07/01 11:06:52;;;;;;;5.55;2.08;;;20.10;99.90;;;;;;5076149;28;20028;-70
2023/07/01 11:09:29;;;;;;;5.82;2.70;;;20.20;99.90;;;;;;5076557;28;20070;-70
2023/07/01 11:11:56;;;;;;;3.67;2.17;;;20.20;99.90;;;;;;5075792;28;20020;-70
2023/07/01 11:14:33;;;;;;;4.25;2.38;;;20.20;99.90;;;;;;5076163;28;20021;-70
2023/07/01 11:17:10;;;;;;;5.90;2.92;;;20.10;99.90;;;;;;5075834;28;20035;-70
2023/07/01 11:19:36;;;;;;;7.65;2.60;;;20.00;99.90;;;;;;5076429;28;20033;-70
2023/07/01 11:22:02;;;;;;;3.80;2.22;;;20.00;99.90;;;;;;5075939;28;20025;-69
2023/07/01 11:24:29;;;;;;;4.28;2.42;;;20.10;99.90;;;;;;5076089;28;20028;-70
2023/07/01 11:27:03;;;;;;;5.07;2.67;;;20.20;99.90;;;;;;5075555;28;20025;-70
2023/07/01 11:29:30;;;;;;;5.45;2.67;;;20.30;99.90;;;;;;5076483;28;20029;-70
2023/07/01 11:32:02;;;;;;;9.05;2.30;;;20.30;99.90;;;;;;5076501;28;20021;-70
2023/07/01 11:34:28;;;;;;;6.45;3.25;;;20.30;99.90;;;;;;5076738;28;20028;-70
2023/07/01 11:36:55;;;;;;;4.18;2.33;;;20.30;99.90;;;;;;5076762;28;20029;-70
2023/07/01 11:39:22;;;;;;;4.57;2.00;;;20.40;99.90;;;;;;5079137;28;20029;-70
2023/07/01 11:41:47;;;;;;;8.65;2.00;;;20.40;99.90;;;;;;5080199;28;20056;-70
2023/07/01 11:44:15;;;;;;;2.40;1.45;;;20.40;99.90;;;;;;5079399;28;20066;-70
2023/07/01 11:46:43;;;;;;;5.32;2.00;;;20.30;99.90;;;;;;5079972;28;20059;-70
2023/07/01 11:49:31;;;;;;;3.70;2.08;;;20.20;99.90;;;;;;5079518;28;20027;-70
2023/07/01 11:52:02;;;;;;;2.70;1.83;;;20.10;99.90;;;;;;5075045;28;20055;-70
2023/07/01 11:54:41;;;;;;;1.80;1.60;;;20.00;99.90;;;;;;5080276;28;20021;-70
2023/07/01 11:57:14;;;;;;;4.68;2.08;;;20.00;99.90;;;;;;5078855;28;20320;-70
2023/07/01 11:59:42;;;;;;;6.32;3.10;;;19.90;99.90;;;;;;5078989;28;20032;-70
2023/07/01 12:02:08;;;;;;;5.85;2.38;;;20.00;99.90;;;;;;5079975;28;20024;-70
2023/07/01 12:04:35;;;;;;;8.07;1.98;;;20.00;99.90;;;;;;5078776;28;20023;-70
2023/07/01 12:07:12;;;;;;;3.92;2.10;;;20.00;99.90;;;;;;5078720;28;20029;-70
2023/07/01 12:09:42;;;;;;;3.10;1.60;;;20.10;99.90;;;;;;5079061;28;20025;-70
2023/07/01 12:12:14;;;;;;;1.92;1.38;;;20.10;99.90;;;;;;5079008;28;20069;-70
2023/07/01 12:14:40;;;;;;;2.72;1.55;;;20.00;99.90;;;;;;5079078;28;20073;-70
2023/07/01 12:17:06;;;;;;;2.50;1.38;;;19.90;99.90;;;;;;5079835;28;20036;-70
2023/07/01 12:19:32;;;;;;;4.22;1.45;;;19.80;99.90;;;;;;5079751;28;20025;-70
2023/07/01 12:21:58;;;;;;;6.60;1.52;;;19.80;99.90;;;;;;5078610;28;20073;-70
2023/07/01 12:24:25;;;;;;;2.78;1.65;;;19.80;99.90;;;;;;5078558;28;20025;-70
2023/07/01 12:26:53;;;;;;;2.80;1.63;;;19.90;99.90;;;;;;5078540;28;20028;-70
2023/07/01 12:29:19;;;;;;;2.30;1.38;;;19.80;99.90;;;;;;5078689;28;20020;-70
2023/07/01 12:31:45;;;;;;;2.35;1.45;;;19.80;99.90;;;;;;5078536;28;20043;-70
2023/07/01 12:34:11;;;;;;;4.93;1.55;;;19.90;99.90;;;;;;5079425;28;20017;-70
2023/07/01 12:36:36;;;;;;;2.13;1.30;;;19.90;99.90;;;;;;5079221;28;20063;-70
2023/07/01 12:39:04;;;;;;;1.98;1.48;;;19.90;99.90;;;;;;5078547;28;20092;-70
2023/07/01 12:41:35;;;;;;;3.90;1.48;;;19.90;99.90;;;;;;5078409;28;20037;-70
2023/07/01 12:44:05;;;;;;;;;;;19.90;99.90;;;;;;5078824;28;20025;-70
2023/07/01 12:46:31;;;;;;;3.63;1.70;;;19.80;99.90;;;;;;5078556;28;19909;-70
2023/07/01 12:48:57;;;;;;;4.90;1.67;;;19.70;99.90;;;;;;5077281;28;20024;-70
2023/07/01 12:51:22;;;;;;;5.75;1.80;;;19.70;99.90;;;;;;5078861;28;20020;-70